Time;durP1;ratioP1;P1;durP2;ratioP2;P2;SDS_P1;SDS_P2;PMS_P1;PMS_P2;Temp;Humidity;BMP_temperature;BMP_pressure;BME280_temperature;BME280_humidity;BME280_pressure;Samples;Min_cycle;Max_cycle;Signal;HPM_P1;HPM_P2
2022/04/24 00:00:01;;;;;;;16.07;10.60;;;;;9.50;94568.00;;;;8316780;28;20256;-70
2022/04/24 00:04:06;;;;;;;17.50;11.23;;;;;9.50;94560.00;;;;8305720;28;20232;-72
2022/04/24 00:08:09;;;;;;;18.77;10.33;;;;;9.50;94548.00;;;;8300468;28;20758;-73
2022/04/24 00:12:15;;;;;;;18.07;11.20;;;;;9.40;94549.00;;;;8298865;28;20233;-72
2022/04/24 00:16:18;;;;;;;17.70;11.13;;;;;9.50;94546.00;;;;8293011;28;20233;-72
2022/04/24 00:20:24;;;;;;;18.23;11.10;;;;;9.50;94544.00;;;;8292739;28;20807;-71
2022/04/24 00:24:27;;;;;;;23.57;13.83;;;;;9.60;94550.00;;;;8296254;28;20235;-70
2022/04/24 00:28:30;;;;;;;18.57;11.77;;;;;9.60;94545.00;;;;8293770;28;20698;-72
2022/04/24 00:32:33;;;;;;;19.33;12.10;;;;;9.60;94526.00;;;;8292488;28;20308;-71
2022/04/24 00:36:38;;;;;;;19.70;12.30;;;;;9.60;94527.00;;;;8299897;28;20225;-71
2022/04/24 00:40:41;;;;;;;18.10;11.47;;;;;9.50;94522.00;;;;8298708;28;20235;-71
2022/04/24 00:44:45;;;;;;;17.73;11.93;;;;;9.50;94513.00;;;;8290670;28;20236;-72
2022/04/24 00:48:48;;;;;;;17.70;11.67;;;;;9.50;94508.00;;;;8297780;28;20260;-72
2022/04/24 00:52:53;;;;;;;23.23;12.47;;;;;9.50;94509.00;;;;8294178;28;20239;-71
2022/04/24 00:56:56;;;;;;;17.97;12.33;;;;;9.50;94499.00;;;;8295637;28;20225;-71
2022/04/24 01:01:00;;;;;;;19.67;12.77;;;;;9.40;94502.00;;;;8295951;28;20329;-69
2022/04/24 01:05:04;;;;;;;17.50;11.57;;;;;9.40;94501.00;;;;8294217;28;20637;-70
2022/04/24 01:09:13;;;;;;;20.70;12.60;;;;;9.30;94486.00;;;;8298087;28;20224;-71
2022/04/24 01:13:16;;;;;;;20.63;11.87;;;;;9.30;94481.00;;;;8284833;28;20217;-70
2022/04/24 01:17:20;;;;;;;23.23;13.73;;;;;9.30;94474.00;;;;8299797;28;20336;-72
2022/04/24 01:21:24;;;;;;;25.07;14.57;;;;;9.30;94466.00;;;;8306266;28;20851;-71
2022/04/24 01:25:28;;;;;;;21.70;13.07;;;;;9.30;94458.00;;;;8315002;28;20233;-71
2022/04/24 01:29:31;;;;;;;21.43;12.90;;;;;9.30;94451.00;;;;8300330;28;20757;-71
2022/04/24 01:33:34;;;;;;;23.97;14.23;;;;;9.30;94449.00;;;;8314238;28;20225;-73
2022/04/24 01:37:43;;;;;;;22.53;12.83;;;;;9.30;94437.00;;;;8305969;28;20264;-71
2022/04/24 01:41:47;;;;;;;22.17;13.43;;;;;9.30;94432.00;;;;8303440;28;20230;-71
2022/04/24 01:45:50;;;;;;;20.57;11.87;;;;;9.30;94442.00;;;;8291082;28;20259;-72
2022/04/24 01:49:54;;;;;;;22.20;12.43;;;;;9.30;94442.00;;;;8287331;28;20237;-71
2022/04/24 01:53:58;;;;;;;22.97;13.80;;;;;9.30;94448.00;;;;8290571;28;20256;-71
2022/04/24 01:58:01;;;;;;;21.03;12.83;;;;;9.30;94449.00;;;;8293639;28;20229;-71
2022/04/24 02:02:05;;;;;;;23.37;14.17;;;;;9.30;94458.00;;;;8296389;28;20243;-71
2022/04/24 02:06:09;;;;;;;24.17;14.67;;;;;9.30;94454.00;;;;8296093;28;20642;-70
2022/04/24 02:10:13;;;;;;;22.37;13.53;;;;;9.30;94437.00;;;;8311053;28;20229;-70
2022/04/24 02:14:17;;;;;;;23.03;13.87;;;;;9.30;94424.00;;;;8298292;28;20312;-70
2022/04/24 02:18:20;;;;;;;23.73;14.03;;;;;9.30;94432.00;;;;8307097;28;20220;-71
2022/04/24 02:22:23;;;;;;;21.23;13.37;;;;;9.30;94417.00;;;;8308375;28;20643;-72
2022/04/24 02:26:28;;;;;;;22.47;13.27;;;;;9.30;94417.00;;;;8313465;28;20251;-70
2022/04/24 02:30:32;;;;;;;21.27;14.07;;;;;9.30;94415.00;;;;8313780;28;20333;-71
2022/04/24 02:34:35;;;;;;;22.57;13.87;;;;;9.30;94405.00;;;;8308305;28;20381;-71
2022/04/24 02:38:38;;;;;;;23.57;14.10;;;;;9.30;94409.00;;;;8313769;28;20253;-71
2022/04/24 02:42:43;;;;;;;23.73;14.47;;;;;9.30;94411.00;;;;8310805;28;20239;-72
2022/04/24 02:46:46;;;;;;;22.70;13.80;;;;;9.30;94397.00;;;;8307301;28;20229;-71
2022/04/24 02:50:49;;;;;;;25.63;14.73;;;;;9.30;94405.00;;;;8313446;28;20228;-72
2022/04/24 02:54:52;;;;;;;24.30;14.13;;;;;9.20;94397.00;;;;8309455;28;20221;-70
2022/04/24 02:59:02;;;;;;;24.97;14.70;;;;;9.30;94398.00;;;;8312810;28;20229;-71
2022/04/24 03:03:06;;;;;;;22.63;14.07;;;;;9.30;94406.00;;;;8333807;22;20696;-70
2022/04/24 03:07:09;;;;;;;27.73;15.67;;;;;9.30;94403.00;;;;8316614;28;20228;-70
2022/04/24 03:11:12;;;;;;;26.17;15.10;;;;;9.40;94405.00;;;;8319669;28;20787;-70
2022/04/24 03:15:16;;;;;;;26.13;15.80;;;;;9.40;94408.00;;;;8329542;28;20751;-71
2022/04/24 03:19:20;;;;;;;30.03;16.33;;;;;9.50;94399.00;;;;8327670;28;20235;-71
2022/04/24 03:23:23;;;;;;;30.13;17.37;;;;;9.50;94406.00;;;;8345132;28;20588;-71
2022/04/24 03:27:26;;;;;;;30.73;17.40;;;;;9.50;94402.00;;;;8346743;28;20220;-70
2022/04/24 03:31:31;;;;;;;26.77;15.40;;;;;9.60;94410.00;;;;8346239;28;20236;-71
2022/04/24 03:35:34;;;;;;;30.70;17.03;;;;;9.60;94406.00;;;;8346546;28;20230;-72
2022/04/24 03:39:37;;;;;;;30.03;16.50;;;;;9.70;94403.00;;;;8350594;28;20316;-71
2022/04/24 03:43:40;;;;;;;31.43;17.43;;;;;9.60;94397.00;;;;8348079;28;20224;-72
2022/04/24 03:47:45;;;;;;;31.80;17.97;;;;;9.60;94413.00;;;;8347675;28;20313;-72
2022/04/24 03:51:49;;;;;;;34.50;19.83;;;;;9.60;94400.00;;;;8351549;28;20247;-72
2022/04/24 03:55:52;;;;;;;35.77;18.00;;;;;9.60;94411.00;;;;8348751;28;20768;-70
2022/04/24 03:59:55;;;;;;;33.73;17.23;;;;;9.50;94393.00;;;;8333836;28;20739;-70
2022/04/24 04:04:00;;;;;;;39.57;19.60;;;;;9.40;94377.00;;;;8307485;28;20228;-70
2022/04/24 04:08:03;;;;;;;39.77;21.70;;;;;9.40;94369.00;;;;8310214;28;20981;-71
2022/04/24 04:12:07;;;;;;;39.70;20.30;;;;;9.40;94376.00;;;;8295601;28;20304;-73
2022/04/24 04:16:10;;;;;;;38.03;19.37;;;;;9.40;94377.00;;;;8294498;28;20224;-72
2022/04/24 04:20:15;;;;;;;43.90;20.67;;;;;9.50;94377.00;;;;8298619;28;20229;-73
2022/04/24 04:24:18;;;;;;;36.13;19.90;;;;;9.60;94383.00;;;;8295603;28;20586;-71
2022/04/24 04:28:21;;;;;;;42.20;21.73;;;;;9.70;94382.00;;;;8297738;28;20278;-72
2022/04/24 04:32:24;;;;;;;38.70;20.13;;;;;9.80;94406.00;;;;8296606;28;20233;-71
2022/04/24 04:36:29;;;;;;;38.97;20.20;;;;;9.80;94397.00;;;;8312251;28;20340;-70
2022/04/24 04:40:32;;;;;;;41.23;20.23;;;;;9.70;94378.00;;;;8307118;28;20233;-69
2022/04/24 04:44:35;;;;;;;40.23;21.20;;;;;9.50;94395.00;;;;8315914;28;20308;-67
2022/04/24 04:48:39;;;;;;;42.47;22.03;;;;;9.30;94400.00;;;;8318505;28;20567;-69
2022/04/24 04:52:44;;;;;;;39.27;21.27;;;;;9.30;94415.00;;;;8304003;28;20249;-68
2022/04/24 04:56:47;;;;;;;49.10;23.07;;;;;9.30;94408.00;;;;8310425;28;20653;-69
2022/04/24 05:00:50;;;;;;;47.10;23.73;;;;;9.30;94417.00;;;;8310281;28;20229;-69
2022/04/24 05:04:54;;;;;;;53.10;25.43;;;;;9.30;94417.00;;;;8319760;28;20915;-70
2022/04/24 05:08:58;;;;;;;49.73;23.43;;;;;9.30;94439.00;;;;8314034;28;20328;-69
2022/04/24 05:13:01;;;;;;;54.23;26.03;;;;;9.40;94445.00;;;;8311304;28;21017;-67
2022/04/24 05:17:05;;;;;;;62.27;27.30;;;;;9.40;94442.00;;;;8312473;28;20336;-67
2022/04/24 05:21:08;;;;;;;57.77;26.17;;;;;9.40;94437.00;;;;8306089;28;20221;-66
2022/04/24 05:25:14;;;;;;;61.40;29.40;;;;;9.40;94418.00;;;;8310792;28;20308;-67
2022/04/24 05:29:18;;;;;;;63.30;28.07;;;;;9.40;94444.00;;;;8295981;28;20233;-68
2022/04/24 05:33:21;;;;;;;64.17;28.00;;;;;9.50;94467.00;;;;8309449;28;20229;-69
2022/04/24 05:37:25;;;;;;;59.63;26.47;;;;;9.60;94460.00;;;;8313807;28;20328;-67
2022/04/24 05:41:29;;;;;;;60.57;26.03;;;;;9.80;94469.00;;;;8305807;28;20694;-68
2022/04/24 05:45:33;;;;;;;62.40;25.07;;;;;9.90;94475.00;;;;8305102;28;20229;-65
2022/04/24 05:49:37;;;;;;;62.37;25.13;;;;;10.00;94479.00;;;;8301568;28;20225;-66
2022/04/24 05:53:40;;;;;;;58.73;25.53;;;;;10.10;94483.00;;;;8307174;28;20236;-66
2022/04/24 05:57:44;;;;;;;63.10;27.47;;;;;10.30;94487.00;;;;8288722;28;20406;-67
2022/04/24 06:01:47;;;;;;;59.97;24.73;;;;;10.40;94493.00;;;;8288391;28;20713;-65
2022/04/24 06:05:51;;;;;;;63.60;26.63;;;;;10.50;94501.00;;;;8285708;28;20689;-69
2022/04/24 06:09:54;;;;;;;61.27;25.33;;;;;10.60;94506.00;;;;8291040;28;20229;-67
2022/04/24 06:13:59;;;;;;;61.45;25.50;;;;;10.60;94513.00;;;;8282014;28;20707;-68
2022/04/24 06:18:02;;;;;;;63.70;27.23;;;;;10.50;94533.00;;;;8289357;28;20781;-67
2022/04/24 06:22:06;;;;;;;62.47;28.50;;;;;10.60;94536.00;;;;8290765;28;20233;-68
2022/04/24 06:26:09;;;;;;;67.50;29.13;;;;;10.60;94547.00;;;;8292912;28;20231;-70
2022/04/24 06:30:15;;;;;;;72.07;28.83;;;;;10.50;94548.00;;;;8288662;28;20820;-68
2022/04/24 06:34:18;;;;;;;70.18;28.00;;;;;10.60;94549.00;;;;8294792;28;20300;-68
2022/04/24 06:38:22;;;;;;;74.47;28.93;;;;;10.60;94550.00;;;;8291854;28;20344;-69
2022/04/24 06:42:25;;;;;;;72.70;29.02;;;;;10.70;94558.00;;;;8291272;28;20934;-69
2022/04/24 06:46:30;;;;;;;72.93;29.20;;;;;10.80;94551.00;;;;8277455;28;20225;-68
2022/04/24 06:50:35;;;;;;;69.47;27.67;;;;;10.80;94556.00;;;;8294429;28;20261;-69
2022/04/24 06:54:38;;;;;;;74.43;29.00;;;;;10.90;94571.00;;;;8292820;28;20237;-68
2022/04/24 06:58:42;;;;;;;74.07;28.57;;;;;11.00;94581.00;;;;8287634;28;20233;-69
2022/04/24 07:02:51;;;;;;;69.70;26.58;;;;;11.00;94588.00;;;;8291822;28;20225;-66
2022/04/24 07:06:55;;;;;;;84.07;31.83;;;;;10.90;94573.00;;;;8301316;28;20287;-68
2022/04/24 07:10:58;;;;;;;93.80;32.83;;;;;10.90;94582.00;;;;8303233;28;20229;-68
2022/04/24 07:15:01;;;;;;;68.13;27.20;;;;;10.90;94586.00;;;;8303445;28;20245;-69
2022/04/24 07:19:06;;;;;;;70.22;27.58;;;;;11.00;94590.00;;;;8294322;28;20237;-69
2022/04/24 07:23:11;;;;;;;52.27;23.07;;;;;11.10;94583.00;;;;8309483;28;20578;-69
2022/04/24 07:27:15;;;;;;;46.90;21.93;;;;;11.10;94576.00;;;;8301529;28;20229;-69
2022/04/24 07:31:19;;;;;;;37.35;16.25;;;;;11.10;94571.00;;;;8309381;28;20307;-71
2022/04/24 07:35:26;;;;;;;28.87;15.50;;;;;11.10;94553.00;;;;8320286;28;20784;-69
2022/04/24 07:39:31;;;;;;;26.98;14.18;;;;;11.00;94562.00;;;;8307735;28;20587;-71
2022/04/24 07:43:34;;;;;;;24.30;13.15;;;;;11.10;94554.00;;;;8305073;28;20981;-71
2022/04/24 07:47:37;;;;;;;22.07;12.50;;;;;11.20;94571.00;;;;8302360;28;20317;-72
2022/04/24 07:51:42;;;;;;;21.63;12.13;;;;;11.40;94568.00;;;;8303190;28;20320;-72
2022/04/24 07:55:47;;;;;;;20.00;11.63;;;;;11.80;94544.00;;;;8301675;28;20237;-71
2022/04/24 07:59:50;;;;;;;14.48;9.27;;;;;12.30;94542.00;;;;8290007;28;20312;-73
2022/04/24 08:03:53;;;;;;;13.77;8.63;;;;;12.30;94564.00;;;;8311061;28;20316;-75
2022/04/24 08:08:00;;;;;;;14.00;8.32;;;;;12.30;94570.00;;;;8309783;28;20240;-75
2022/04/24 08:12:04;;;;;;;10.52;7.53;;;;;12.40;94577.00;;;;8308001;28;20300;-75
2022/04/24 08:16:07;;;;;;;10.90;6.60;;;;;12.50;94584.00;;;;8304211;28;20219;-77
2022/04/24 08:20:12;;;;;;;8.68;6.35;;;;;13.10;94587.00;;;;8308890;28;20222;-77
2022/04/24 08:24:17;;;;;;;8.20;6.10;;;;;13.60;94606.00;;;;8307649;28;20734;-74
2022/04/24 08:28:21;;;;;;;5.72;4.32;;;;;13.80;94617.00;;;;8317881;28;20305;-76
2022/04/24 08:32:25;;;;;;;6.55;4.95;;;;;13.90;94635.00;;;;8300901;28;20321;-76
2022/04/24 08:36:28;;;;;;;3.00;2.80;;;;;14.50;94642.00;;;;8315683;28;20240;-71
2022/04/24 08:40:33;;;;;;;2.83;2.63;;;;;15.50;94642.00;;;;8303656;28;20336;-76
2022/04/24 08:44:37;;;;;;;3.15;2.60;;;;;16.10;94641.00;;;;8303917;28;20719;-73
2022/04/24 08:48:43;;;;;;;2.55;2.15;;;;;16.10;94641.00;;;;8303920;28;20271;-72
2022/04/24 08:52:48;;;;;;;2.38;2.17;;;;;14.90;94662.00;;;;8301849;28;20232;-72
2022/04/24 08:57:03;;;;;;;1.92;1.83;;;;;14.30;94690.00;;;;8261324;28;20686;-73
2022/04/24 09:01:08;;;;;;;1.60;1.50;;;;;13.90;94689.00;;;;8285077;28;20233;-71
2022/04/24 09:05:12;;;;;;;1.50;1.50;;;;;13.90;94689.00;;;;8307653;28;20232;-73
2022/04/24 09:09:17;;;;;;;1.35;1.35;;;;;14.20;94678.00;;;;8277985;28;20255;-75
2022/04/24 09:14:14;;;;;;;1.67;1.58;;;;;14.40;94670.00;;;;8307956;28;20221;-70
2022/04/24 09:18:01;;;;;;;1.48;1.48;;;;;14.60;94679.00;;;;8303698;28;20610;-69
2022/04/24 09:22:11;;;;;;;1.85;1.50;;;;;15.50;94682.00;;;;8312137;28;20228;-69
2022/04/24 09:26:15;;;;;;;1.40;1.40;;;;;15.20;94697.00;;;;8306243;28;20246;-68
2022/04/24 09:30:22;;;;;;;1.10;1.10;;;;;14.70;94706.00;;;;8311145;28;20351;-69
2022/04/24 09:34:31;;;;;;;1.20;1.20;;;;;15.00;94703.00;;;;8308953;28;20316;-69
2022/04/24 09:38:41;;;;;;;1.50;1.40;;;;;15.10;94695.00;;;;8302320;28;20262;-71
2022/04/24 09:42:54;;;;;;;1.55;1.45;;;;;16.00;94713.00;;;;8312078;28;20871;-70
2022/04/24 09:47:07;;;;;;;1.00;1.00;;;;;16.30;94711.00;;;;8265250;28;20303;-72
2022/04/24 09:51:44;;;;;;;1.35;1.35;;;;;16.00;94716.00;;;;8329096;28;20275;-71
2022/04/24 09:56:21;;;;;;;1.20;1.20;;;;;15.80;94722.00;;;;8328680;28;20275;-72
2022/04/24 10:00:58;;;;;;;1.20;1.20;;;;;16.00;94723.00;;;;8328990;28;20315;-72
2022/04/24 10:05:38;;;;;;;1.20;1.20;;;;;16.40;94732.00;;;;8329789;28;20248;-72
2022/04/24 10:10:12;;;;;;;1.02;1.02;;;;;16.30;94741.00;;;;8328778;28;20614;-71
2022/04/24 10:14:51;;;;;;;1.08;1.08;;;;;16.30;94756.00;;;;8329957;28;20225;-72
2022/04/24 10:19:24;;;;;;;1.00;1.00;;;;;16.50;94762.00;;;;8327523;28;20217;-70
2022/04/24 10:24:04;;;;;;;3.83;1.08;;;;;16.40;94751.00;;;;8329389;28;20225;-70
2022/04/24 10:28:17;;;;;;;1.10;1.10;;;;;16.20;94741.00;;;;8328932;28;20685;-70
2022/04/24 10:33:13;;;;;;;1.10;1.10;;;;;16.30;94755.00;;;;8328787;28;20319;-70
2022/04/24 10:37:33;;;;;;;0.95;0.95;;;;;16.50;94742.00;;;;8328498;28;20221;-69
2022/04/24 10:41:37;;;;;;;0.80;0.80;;;;;16.70;94736.00;;;;8329474;28;20275;-69
2022/04/24 10:45:48;;;;;;;0.90;0.90;;;;;17.00;94725.00;;;;8311555;28;20674;-70
2022/04/24 10:50:06;;;;;;;0.90;0.90;;;;;17.70;94710.00;;;;8313662;28;20223;-69
2022/04/24 10:54:32;;;;;;;0.80;0.80;;;;;18.00;94712.00;;;;8311019;28;20642;-69
2022/04/24 10:59:02;;;;;;;1.75;0.90;;;;;18.00;94710.00;;;;8311100;28;20217;-69
2022/04/24 11:03:11;;;;;;;0.98;0.98;;;;;18.20;94703.00;;;;8310707;28;20225;-70
2022/04/24 11:07:43;;;;;;;0.90;0.90;;;;;18.20;94685.00;;;;8312069;28;20217;-70
2022/04/24 11:12:19;;;;;;;0.90;0.90;;;;;17.90;94696.00;;;;8311343;28;20482;-70
2022/04/24 11:16:57;;;;;;;0.95;0.90;;;;;17.80;94702.00;;;;8311374;28;20217;-70
2022/04/24 11:21:40;;;;;;;1.00;1.00;;;;;17.70;94701.00;;;;8311725;28;20606;-70
2022/04/24 11:26:09;;;;;;;1.48;1.10;;;;;18.50;94714.00;;;;8310616;28;20240;-70
2022/04/24 11:30:43;;;;;;;1.02;1.02;;;;;19.40;94696.00;;;;8305298;28;20224;-69
2022/04/24 11:35:21;;;;;;;1.35;0.95;;;;;19.20;94695.00;;;;8319413;28;20233;-69
2022/04/24 11:39:55;;;;;;;1.20;1.10;;;;;19.40;94703.00;;;;8333249;28;20311;-69
2022/04/24 11:58:22;;;;;;;0.90;0.90;;;;;17.20;94738.00;;;;8333938;28;20245;-69
2022/04/24 12:02:56;;;;;;;0.90;0.90;;;;;16.60;94756.00;;;;8333203;28;20328;-67
2022/04/24 12:07:07;;;;;;;0.70;0.70;;;;;16.00;94744.00;;;;8329425;28;20213;-69
2022/04/24 12:11:40;;;;;;;0.75;0.75;;;;;15.90;94759.00;;;;8316421;28;20296;-69
2022/04/24 12:16:22;;;;;;;0.80;0.80;;;;;16.00;94765.00;;;;8317052;28;20220;-69
2022/04/24 12:20:53;;;;;;;0.85;0.82;;;;;16.60;94760.00;;;;8316116;28;20236;-68
2022/04/24 12:25:30;;;;;;;0.80;0.80;;;;;16.70;94759.00;;;;8316364;28;20312;-69
2022/04/24 12:30:16;;;;;;;0.80;0.80;;;;;16.70;94774.00;;;;8316051;28;20239;-68
2022/04/24 12:34:53;;;;;;;0.80;0.80;;;;;17.00;94766.00;;;;8319850;28;20561;-69
2022/04/24 12:39:32;;;;;;;0.70;0.70;;;;;17.40;94761.00;;;;8315435;28;20243;-69
2022/04/24 12:44:07;;;;;;;0.85;0.85;;;;;17.40;94774.00;;;;8315402;28;20308;-67
2022/04/24 12:48:47;;;;;;;0.80;0.80;;;;;17.30;94766.00;;;;8316616;28;20224;-69
2022/04/24 12:53:25;;;;;;;0.80;0.80;;;;;16.90;94750.00;;;;8331979;28;20603;-69
2022/04/24 12:58:03;;;;;;;0.80;0.80;;;;;16.70;94764.00;;;;8331613;28;20319;-70
2022/04/24 13:02:37;;;;;;;0.93;0.93;;;;;17.20;94765.00;;;;8321835;28;20296;-68
2022/04/24 13:11:54;;;;;;;0.90;0.90;;;;;17.80;94764.00;;;;8328331;28;20300;-69
2022/04/24 13:21:06;;;;;;;0.80;0.80;;;;;17.30;94760.00;;;;8321864;28;20236;-70
2022/04/24 13:25:40;;;;;;;0.90;0.90;;;;;16.70;94765.00;;;;8325814;28;20300;-69
2022/04/24 13:30:17;;;;;;;0.90;0.90;;;;;16.60;94758.00;;;;8314277;28;20233;-68
2022/04/24 13:34:55;;;;;;;0.95;0.90;;;;;16.60;94753.00;;;;8326052;28;20567;-69
2022/04/24 13:39:29;;;;;;;0.90;0.90;;;;;16.50;94770.00;;;;8330593;28;20227;-69
2022/04/24 13:43:34;;;;;;;0.80;0.80;;;;;16.30;94768.00;;;;8329707;28;20327;-69
2022/04/24 13:48:10;;;;;;;0.70;0.70;;;;;16.00;94764.00;;;;8322225;28;20784;-69
2022/04/24 13:52:46;;;;;;;0.70;0.70;;;;;16.00;94781.00;;;;8330318;28;20228;-69
2022/04/24 13:57:21;;;;;;;0.70;0.70;;;;;15.50;94767.00;;;;8329570;28;20307;-69
2022/04/24 14:01:25;;;;;;;0.70;0.70;;;;;15.40;94767.00;;;;8324845;28;20613;-68
2022/04/24 14:05:59;;;;;;;0.70;0.70;;;;;15.60;94767.00;;;;8329079;28;20227;-69
2022/04/24 14:10:36;;;;;;;0.80;0.80;;;;;16.00;94780.00;;;;8329401;28;20294;-68
2022/04/24 14:14:41;;;;;;;0.70;0.70;;;;;16.40;94773.00;;;;8330236;28;20220;-69
2022/04/24 14:19:15;;;;;;;0.70;0.70;;;;;16.60;94778.00;;;;8325036;28;20221;-69
2022/04/24 14:23:20;;;;;;;0.70;0.70;;;;;17.00;94784.00;;;;8329770;28;20252;-69
2022/04/24 14:27:55;;;;;;;0.73;0.73;;;;;17.20;94794.00;;;;8329226;28;20307;-68
2022/04/24 14:32:00;;;;;;;0.70;0.70;;;;;17.10;94787.00;;;;8325445;28;20233;-70
2022/04/24 14:36:04;;;;;;;0.63;0.63;;;;;16.80;94795.00;;;;8328054;28;20224;-68
2022/04/24 14:40:41;;;;;;;0.50;0.50;;;;;16.50;94792.00;;;;8329391;28;20689;-69
2022/04/24 14:55:44;;;;;;;0.70;0.70;;;;;15.90;94798.00;;;;8328534;28;20213;-70
2022/04/24 14:59:15;;;;;;;0.90;0.90;;;;;15.20;94796.00;;;;8327481;28;20710;-68
2022/04/24 15:03:48;;;;;;;1.00;1.00;;;;;14.90;94789.00;;;;8326838;28;20266;-68
2022/04/24 15:13:09;;;;;;;11.40;10.50;;;;;14.40;94787.00;;;;8327128;28;20233;-70
2022/04/24 15:17:46;;;;;;;3.95;3.65;;;;;14.40;94803.00;;;;8323249;28;20224;-70
2022/04/24 15:22:24;;;;;;;1.60;1.50;;;;;14.90;94802.00;;;;8311135;28;20223;-70
2022/04/24 15:27:01;;;;;;;1.88;1.70;;;;;15.50;94796.00;;;;8310778;28;20236;-69
2022/04/24 15:31:39;;;;;;;2.60;2.42;;;;;15.70;94803.00;;;;8311151;28;20243;-69
2022/04/24 15:36:13;;;;;;;1.52;1.45;;;;;15.80;94789.00;;;;8310709;28;20639;-72
2022/04/24 15:40:50;;;;;;;1.10;1.10;;;;;15.90;94791.00;;;;8316612;28;20239;-71
2022/04/24 15:49:30;;;;;;;1.40;1.40;;;;;15.40;94782.00;;;;8310423;28;20213;-71
2022/04/24 15:54:04;;;;;;;1.50;1.50;;;;;15.00;94787.00;;;;8311948;28;20233;-71
2022/04/24 15:58:40;;;;;;;1.35;1.35;;;;;14.50;94782.00;;;;8310387;28;20300;-71
2022/04/24 16:02:44;;;;;;;3.00;2.80;;;;;14.40;94784.00;;;;8310572;28;20714;-72
2022/04/24 16:07:20;;;;;;;2.22;2.13;;;;;14.50;94786.00;;;;8309629;28;20597;-71
2022/04/24 16:11:53;;;;;;;2.60;2.05;;;;;14.70;94786.00;;;;8310558;28;20743;-71
2022/04/24 16:16:30;;;;;;;1.30;1.30;;;;;14.80;94790.00;;;;8310348;28;20226;-72
2022/04/24 16:21:07;;;;;;;1.20;1.20;;;;;14.90;94795.00;;;;8315000;28;20593;-73
2022/04/24 16:25:43;;;;;;;0.90;0.90;;;;;14.90;94791.00;;;;8311925;28;20721;-72
2022/04/24 16:30:16;;;;;;;2.40;1.05;;;;;14.90;94799.00;;;;8322419;28;20625;-70
2022/04/24 16:34:52;;;;;;;0.70;0.70;;;;;14.90;94803.00;;;;8332601;28;20227;-70
2022/04/24 16:39:26;;;;;;;1.58;1.00;;;;;14.80;94799.00;;;;8332693;28;20568;-71
2022/04/24 16:44:03;;;;;;;0.98;0.98;;;;;14.60;94797.00;;;;8331936;28;20264;-71
2022/04/24 16:48:42;;;;;;;0.90;0.90;;;;;14.20;94796.00;;;;8331784;28;20219;-71
2022/04/24 17:02:15;;;;;;;0.90;0.90;;;;;13.40;94795.00;;;;8290333;28;20633;-71
2022/04/24 17:06:53;;;;;;;0.70;0.70;;;;;13.30;94811.00;;;;8331135;28;20240;-71
2022/04/24 17:11:31;;;;;;;0.90;0.90;;;;;13.20;94802.00;;;;8331081;28;20220;-72
2022/04/24 17:16:09;;;;;;;0.90;0.90;;;;;13.10;94812.00;;;;8331767;28;20225;-72
2022/04/24 17:20:43;;;;;;;1.00;1.00;;;;;13.00;94814.00;;;;8330201;28;20226;-72
2022/04/24 17:25:21;;;;;;;1.10;1.10;;;;;13.00;94813.00;;;;8327178;28;20229;-71
2022/04/24 17:29:59;;;;;;;0.90;0.90;;;;;13.00;94820.00;;;;8330166;28;20586;-72
2022/04/24 17:34:36;;;;;;;0.98;0.98;;;;;12.90;94814.00;;;;8329946;28;20277;-72
2022/04/24 17:39:11;;;;;;;1.05;0.98;;;;;12.90;94823.00;;;;8327241;28;20258;-71
2022/04/24 17:43:46;;;;;;;1.20;1.05;;;;;12.80;94825.00;;;;8324907;28;20641;-70
2022/04/24 17:48:23;;;;;;;1.00;1.00;;;;;12.70;94820.00;;;;8329912;28;20305;-69
2022/04/24 17:53:00;;;;;;;0.90;0.90;;;;;12.60;94831.00;;;;8330427;28;20262;-71
2022/04/24 17:57:37;;;;;;;1.00;1.00;;;;;12.60;94828.00;;;;8329548;28;20214;-72
2022/04/24 18:02:16;;;;;;;1.10;1.10;;;;;12.60;94832.00;;;;8327739;28;20233;-72
2022/04/24 18:06:51;;;;;;;1.00;1.00;;;;;12.60;94843.00;;;;8312853;28;20242;-73
2022/04/24 18:11:28;;;;;;;2.72;1.00;;;;;12.50;94845.00;;;;8312493;28;20249;-72
2022/04/24 18:16:03;;;;;;;0.93;0.93;;;;;12.40;94852.00;;;;8313214;28;20241;-72
2022/04/24 18:20:46;;;;;;;1.00;1.00;;;;;12.10;94863.00;;;;8312146;28;20217;-73
2022/04/24 18:25:20;;;;;;;0.90;0.90;;;;;11.70;94866.00;;;;8312946;28;20213;-74
2022/04/24 18:30:02;;;;;;;1.25;1.20;;;;;11.40;94877.00;;;;8315578;28;20646;-71
2022/04/24 18:34:33;;;;;;;1.23;1.23;;;;;11.30;94877.00;;;;8312454;28;20266;-68
2022/04/24 18:39:08;;;;;;;1.83;1.30;;;;;11.20;94867.00;;;;8311582;28;20282;-70
2022/04/24 18:43:47;;;;;;;1.52;1.20;;;;;11.10;94879.00;;;;8310731;28;20296;-72
2022/04/24 18:48:21;;;;;;;2.53;1.20;;;;;11.10;94888.00;;;;8311634;28;20300;-72
2022/04/24 18:52:57;;;;;;;1.90;1.30;;;;;11.00;94886.00;;;;8307437;28;20296;-72
2022/04/24 18:57:34;;;;;;;1.17;1.17;;;;;11.00;94900.00;;;;8310860;28;20296;-72
2022/04/24 19:02:13;;;;;;;2.57;1.63;;;;;10.90;94893.00;;;;8311555;28;20268;-70
2022/04/24 19:16:18;;;;;;;2.58;2.35;;;;;11.00;94906.00;;;;8275895;28;20299;-67
2022/04/24 19:20:54;;;;;;;2.20;2.10;;;;;11.00;94918.00;;;;8309944;28;20220;-66
2022/04/24 19:25:28;;;;;;;2.08;1.98;;;;;10.90;94917.00;;;;8326489;28;20245;-65
2022/04/24 19:30:06;;;;;;;8.03;1.97;;;;;10.70;94911.00;;;;8326580;28;20304;-63
2022/04/24 19:34:40;;;;;;;2.00;1.90;;;;;10.60;94925.00;;;;8326196;28;20217;-64
2022/04/24 19:39:19;;;;;;;1.77;1.70;;;;;10.60;94926.00;;;;8326087;28;20248;-64
2022/04/24 19:43:53;;;;;;;1.73;1.63;;;;;10.40;94923.00;;;;8326734;28;20558;-63
2022/04/24 19:53:05;;;;;;;2.50;2.30;;;;;10.40;94933.00;;;;8309550;28;20229;-63
2022/04/24 19:57:10;;;;;;;2.50;2.30;;;;;10.40;94939.00;;;;8312647;28;20267;-63
2022/04/24 20:01:44;;;;;;;2.60;2.40;;;;;10.40;94934.00;;;;8314472;28;20239;-63
2022/04/24 20:06:21;;;;;;;2.53;2.33;;;;;10.40;94932.00;;;;8314979;28;20209;-64
2022/04/24 20:10:24;;;;;;;2.83;2.50;;;;;10.40;94938.00;;;;8323341;28;211342;-64
2022/04/24 20:15:03;;;;;;;3.47;2.40;;;;;10.40;94933.00;;;;8317059;28;20662;-64
2022/04/24 20:19:37;;;;;;;4.37;3.13;;;;;10.40;94937.00;;;;8314696;28;20296;-63
2022/04/24 20:24:14;;;;;;;6.27;3.43;;;;;10.40;94946.00;;;;8316061;28;20650;-62
2022/04/24 20:28:51;;;;;;;6.97;4.40;;;;;10.40;94930.00;;;;8317409;28;20725;-63
2022/04/24 20:33:30;;;;;;;5.17;3.83;;;;;10.40;94947.00;;;;8332805;28;20240;-66
2022/04/24 20:38:05;;;;;;;4.53;3.37;;;;;10.40;94951.00;;;;8332665;28;20577;-69
2022/04/24 20:42:39;;;;;;;5.17;3.80;;;;;10.50;94955.00;;;;8332289;28;20304;-64
2022/04/24 20:46:49;;;;;;;4.43;3.90;;;;;10.50;94953.00;;;;8333344;28;20548;-63
2022/04/24 20:51:25;;;;;;;7.03;4.17;;;;;10.40;94954.00;;;;8331743;28;20244;-66
2022/04/24 20:56:02;;;;;;;6.93;4.33;;;;;10.50;94960.00;;;;8332756;28;20316;-66
2022/04/24 21:00:07;;;;;;;6.67;4.43;;;;;10.50;94961.00;;;;8331864;28;20296;-66
2022/04/24 21:04:10;;;;;;;8.20;5.17;;;;;10.50;94965.00;;;;8331738;28;20631;-66
2022/04/24 21:08:15;;;;;;;6.17;4.63;;;;;10.50;94966.00;;;;8332194;28;20221;-66
2022/04/24 21:12:18;;;;;;;5.87;5.20;;;;;10.50;94961.00;;;;8331637;28;20209;-67
2022/04/24 21:16:21;;;;;;;7.23;4.87;;;;;10.50;94966.00;;;;8332128;28;20239;-67
2022/04/24 21:20:58;;;;;;;7.97;4.93;;;;;10.50;94976.00;;;;8331698;28;20275;-67
2022/04/24 21:25:34;;;;;;;8.57;5.60;;;;;10.50;94975.00;;;;8330539;28;20229;-66
2022/04/24 21:29:39;;;;;;;8.37;5.50;;;;;10.40;94981.00;;;;8331908;28;20228;-66
2022/04/24 21:34:13;;;;;;;7.80;5.50;;;;;10.40;94981.00;;;;8331475;28;20324;-66
2022/04/24 21:38:16;;;;;;;9.13;5.53;;;;;10.40;94976.00;;;;8330392;28;20241;-66
2022/04/24 21:42:19;;;;;;;8.70;5.63;;;;;10.40;94987.00;;;;8331208;28;20596;-67
2022/04/24 21:46:24;;;;;;;8.37;6.13;;;;;10.40;94988.00;;;;8330196;28;20231;-66
2022/04/24 21:50:57;;;;;;;9.00;5.67;;;;;10.40;94992.00;;;;8331643;28;20225;-67
2022/04/24 21:55:33;;;;;;;9.70;6.17;;;;;10.40;94994.00;;;;8330032;28;20216;-67
2022/04/24 22:00:10;;;;;;;11.77;6.37;;;;;10.40;94991.00;;;;8329617;28;20301;-68
2022/04/24 22:04:24;;;;;;;10.40;6.47;;;;;10.40;95006.00;;;;8330674;28;20309;-67
2022/04/24 22:08:28;;;;;;;11.90;7.13;;;;;10.40;95006.00;;;;8326137;28;20232;-68
2022/04/24 22:12:32;;;;;;;11.02;7.20;;;;;10.50;95012.00;;;;8327298;28;20221;-67
2022/04/24 22:17:08;;;;;;;12.07;7.07;;;;;10.40;95014.00;;;;8314124;28;20304;-67
2022/04/24 22:25:50;;;;;;;13.83;8.40;;;;;10.40;95017.00;;;;8313251;28;20309;-68
2022/04/24 22:30:25;;;;;;;12.85;8.65;;;;;10.40;95015.00;;;;8312772;28;20217;-68